sensor_id;sensor_type;location;lat;lon;timestamp;temperature;humidity
22633;DHT22;11483;55.828;37.488;2023-05-24T00:01:42;17.50;99.90
22633;DHT22;11483;55.828;37.488;2023-05-24T00:04:08;17.50;99.90
22633;DHT22;11483;55.828;37.488;2023-05-24T00:06:35;17.40;99.90
22633;DHT22;11483;55.828;37.488;2023-05-24T00:09:02;17.30;99.90
22633;DHT22;11483;55.828;37.488;2023-05-24T00:11:28;17.30;99.90
22633;DHT22;11483;55.828;37.488;2023-05-24T00:13:55;17.30;99.90
22633;DHT22;11483;55.828;37.488;2023-05-24T00:16:21;17.20;99.90
22633;DHT22;11483;55.828;37.488;2023-05-24T00:18:47;17.30;99.90
22633;DHT22;11483;55.828;37.488;2023-05-24T00:21:13;17.20;99.90
22633;DHT22;11483;55.828;37.488;2023-05-24T00:23:40;17.20;99.90
22633;DHT22;11483;55.828;37.488;2023-05-24T00:26:07;17.20;99.90
22633;DHT22;11483;55.828;37.488;2023-05-24T00:28:33;17.20;99.90
22633;DHT22;11483;55.828;37.488;2023-05-24T00:31:00;17.20;99.90
22633;DHT22;11483;55.828;37.488;2023-05-24T00:33:26;17.20;99.90
22633;DHT22;11483;55.828;37.488;2023-05-24T00:35:53;17.10;99.90
22633;DHT22;11483;55.828;37.488;2023-05-24T00:38:22;17.10;99.90
22633;DHT22;11483;55.828;37.488;2023-05-24T00:40:48;17.00;99.90
22633;DHT22;11483;55.828;37.488;2023-05-24T00:43:14;17.10;99.90
22633;DHT22;11483;55.828;37.488;2023-05-24T00:45:41;17.00;99.90
22633;DHT22;11483;55.828;37.488;2023-05-24T00:48:07;17.10;99.90
22633;DHT22;11483;55.828;37.488;2023-05-24T00:50:33;17.00;99.90
22633;DHT22;11483;55.828;37.488;2023-05-24T00:53:01;17.10;99.90
22633;DHT22;11483;55.828;37.488;2023-05-24T00:55:28;17.00;99.90
22633;DHT22;11483;55.828;37.488;2023-05-24T00:58:08;17.00;99.90
22633;DHT22;11483;55.828;37.488;2023-05-24T01:00:42;17.00;99.90
22633;DHT22;11483;55.828;37.488;2023-05-24T01:03:09;17.00;99.90
22633;DHT22;11483;55.828;37.488;2023-05-24T01:05:35;16.90;99.90
22633;DHT22;11483;55.828;37.488;2023-05-24T01:08:18;16.90;99.90
22633;DHT22;11483;55.828;37.488;2023-05-24T01:27:57;17.10;99.90
22633;DHT22;11483;55.828;37.488;2023-05-24T01:30:27;17.10;99.90
22633;DHT22;11483;55.828;37.488;2023-05-24T01:32:53;17.10;99.90
22633;DHT22;11483;55.828;37.488;2023-05-24T01:35:19;17.10;99.90
22633;DHT22;11483;55.828;37.488;2023-05-24T01:37:45;17.10;99.90
22633;DHT22;11483;55.828;37.488;2023-05-24T01:40:11;17.10;99.90
22633;DHT22;11483;55.828;37.488;2023-05-24T01:42:47;17.10;99.90
22633;DHT22;11483;55.828;37.488;2023-05-24T01:45:32;17.10;99.90
22633;DHT22;11483;55.828;37.488;2023-05-24T01:48:53;17.10;99.90
22633;DHT22;11483;55.828;37.488;2023-05-24T01:51:00;17.10;99.90
22633;DHT22;11483;55.828;37.488;2023-05-24T01:53:32;17.10;99.90
22633;DHT22;11483;55.828;37.488;2023-05-24T01:56:01;17.10;99.90
22633;DHT22;11483;55.828;37.488;2023-05-24T01:58:29;17.10;99.90
22633;DHT22;11483;55.828;37.488;2023-05-24T02:00:56;17.10;99.90
22633;DHT22;11483;55.828;37.488;2023-05-24T02:03:22;17.10;99.90
22633;DHT22;11483;55.828;37.488;2023-05-24T02:05:48;17.00;99.90
22633;DHT22;11483;55.828;37.488;2023-05-24T02:08:14;17.00;99.90
22633;DHT22;11483;55.828;37.488;2023-05-24T02:10:40;17.00;99.90
22633;DHT22;11483;55.828;37.488;2023-05-24T02:13:06;16.90;99.90
22633;DHT22;11483;55.828;37.488;2023-05-24T02:15:33;16.80;99.90
22633;DHT22;11483;55.828;37.488;2023-05-24T02:18:00;16.80;99.90
22633;DHT22;11483;55.828;37.488;2023-05-24T02:20:27;16.90;99.90
22633;DHT22;11483;55.828;37.488;2023-05-24T02:22:56;16.80;99.90
22633;DHT22;11483;55.828;37.488;2023-05-24T02:25:23;16.90;99.90
22633;DHT22;11483;55.828;37.488;2023-05-24T02:27:49;16.90;99.90
22633;DHT22;11483;55.828;37.488;2023-05-24T02:30:14;16.90;99.90
22633;DHT22;11483;55.828;37.488;2023-05-24T02:32:40;16.90;99.90
22633;DHT22;11483;55.828;37.488;2023-05-24T02:35:06;16.90;99.90
22633;DHT22;11483;55.828;37.488;2023-05-24T02:37:32;16.90;99.90
22633;DHT22;11483;55.828;37.488;2023-05-24T02:39:58;16.90;99.90
22633;DHT22;11483;55.828;37.488;2023-05-24T02:42:24;16.80;99.90
22633;DHT22;11483;55.828;37.488;2023-05-24T02:44:50;16.80;99.90
22633;DHT22;11483;55.828;37.488;2023-05-24T02:47:17;16.80;99.90
22633;DHT22;11483;55.828;37.488;2023-05-24T02:49:43;16.70;99.90
22633;DHT22;11483;55.828;37.488;2023-05-24T02:52:09;16.80;99.90
22633;DHT22;11483;55.828;37.488;2023-05-24T02:54:35;16.80;99.90
22633;DHT22;11483;55.828;37.488;2023-05-24T02:57:02;16.90;99.90
22633;DHT22;11483;55.828;37.488;2023-05-24T02:59:27;16.90;99.90
22633;DHT22;11483;55.828;37.488;2023-05-24T03:01:53;16.90;99.90
22633;DHT22;11483;55.828;37.488;2023-05-24T03:04:19;17.00;99.90
22633;DHT22;11483;55.828;37.488;2023-05-24T03:06:45;17.10;99.90
22633;DHT22;11483;55.828;37.488;2023-05-24T03:09:11;17.10;99.90
22633;DHT22;11483;55.828;37.488;2023-05-24T03:11:37;17.20;99.90
22633;DHT22;11483;55.828;37.488;2023-05-24T03:14:03;17.20;99.90
22633;DHT22;11483;55.828;37.488;2023-05-24T03:16:30;17.30;99.90
22633;DHT22;11483;55.828;37.488;2023-05-24T03:18:57;17.30;99.90
22633;DHT22;11483;55.828;37.488;2023-05-24T03:21:24;17.40;99.90
22633;DHT22;11483;55.828;37.488;2023-05-24T03:23:50;17.40;99.90
22633;DHT22;11483;55.828;37.488;2023-05-24T03:26:16;17.50;99.90
22633;DHT22;11483;55.828;37.488;2023-05-24T03:28:43;17.40;99.90
22633;DHT22;11483;55.828;37.488;2023-05-24T03:31:10;17.40;99.90
22633;DHT22;11483;55.828;37.488;2023-05-24T03:33:37;17.40;99.90
22633;DHT22;11483;55.828;37.488;2023-05-24T03:36:03;17.50;99.90
22633;DHT22;11483;55.828;37.488;2023-05-24T03:38:29;17.60;99.90
22633;DHT22;11483;55.828;37.488;2023-05-24T03:40:58;17.70;99.90
22633;DHT22;11483;55.828;37.488;2023-05-24T03:43:24;17.70;99.90
22633;DHT22;11483;55.828;37.488;2023-05-24T03:45:50;17.90;99.90
22633;DHT22;11483;55.828;37.488;2023-05-24T03:48:16;18.00;99.90
22633;DHT22;11483;55.828;37.488;2023-05-24T03:50:45;18.10;99.90
22633;DHT22;11483;55.828;37.488;2023-05-24T03:53:11;18.30;99.90
22633;DHT22;11483;55.828;37.488;2023-05-24T03:55:37;18.30;99.90
22633;DHT22;11483;55.828;37.488;2023-05-24T03:58:03;18.30;99.90
22633;DHT22;11483;55.828;37.488;2023-05-24T04:00:29;18.30;99.90
22633;DHT22;11483;55.828;37.488;2023-05-24T04:02:55;18.30;99.90
22633;DHT22;11483;55.828;37.488;2023-05-24T04:05:21;18.30;99.90
22633;DHT22;11483;55.828;37.488;2023-05-24T04:07:51;18.50;99.90
22633;DHT22;11483;55.828;37.488;2023-05-24T04:10:18;18.50;99.90
22633;DHT22;11483;55.828;37.488;2023-05-24T04:12:44;18.60;99.90
22633;DHT22;11483;55.828;37.488;2023-05-24T04:15:10;18.70;99.90
22633;DHT22;11483;55.828;37.488;2023-05-24T04:17:43;18.60;99.90
22633;DHT22;11483;55.828;37.488;2023-05-24T04:20:10;18.70;99.90
22633;DHT22;11483;55.828;37.488;2023-05-24T04:22:36;18.80;99.90
22633;DHT22;11483;55.828;37.488;2023-05-24T04:25:03;18.70;99.90
22633;DHT22;11483;55.828;37.488;2023-05-24T04:27:30;18.60;99.90
22633;DHT22;11483;55.828;37.488;2023-05-24T04:29:56;18.60;99.90
22633;DHT22;11483;55.828;37.488;2023-05-24T04:32:22;18.60;99.90
22633;DHT22;11483;55.828;37.488;2023-05-24T04:34:48;18.60;99.90
22633;DHT22;11483;55.828;37.488;2023-05-24T04:37:15;18.50;99.90
22633;DHT22;11483;55.828;37.488;2023-05-24T04:39:44;18.40;99.90
22633;DHT22;11483;55.828;37.488;2023-05-24T04:42:11;18.50;99.90
22633;DHT22;11483;55.828;37.488;2023-05-24T04:44:39;18.60;99.90
22633;DHT22;11483;55.828;37.488;2023-05-24T04:47:05;18.60;99.90
22633;DHT22;11483;55.828;37.488;2023-05-24T04:49:32;18.60;99.90
22633;DHT22;11483;55.828;37.488;2023-05-24T04:51:58;18.70;99.90
22633;DHT22;11483;55.828;37.488;2023-05-24T04:54:23;18.90;99.90
22633;DHT22;11483;55.828;37.488;2023-05-24T04:56:49;18.80;99.90
22633;DHT22;11483;55.828;37.488;2023-05-24T04:59:15;18.80;99.90
22633;DHT22;11483;55.828;37.488;2023-05-24T05:01:41;18.80;99.90
22633;DHT22;11483;55.828;37.488;2023-05-24T05:04:07;19.00;99.90
22633;DHT22;11483;55.828;37.488;2023-05-24T05:06:33;19.40;99.90
22633;DHT22;11483;55.828;37.488;2023-05-24T05:09:06;19.70;99.90
22633;DHT22;11483;55.828;37.488;2023-05-24T05:11:36;20.10;99.90
22633;DHT22;11483;55.828;37.488;2023-05-24T05:14:02;20.30;99.90
22633;DHT22;11483;55.828;37.488;2023-05-24T05:16:27;20.70;99.90
22633;DHT22;11483;55.828;37.488;2023-05-24T05:18:53;20.90;99.90
22633;DHT22;11483;55.828;37.488;2023-05-24T05:21:19;21.20;99.90
22633;DHT22;11483;55.828;37.488;2023-05-24T05:23:45;21.40;99.90
22633;DHT22;11483;55.828;37.488;2023-05-24T05:26:11;21.80;99.90
22633;DHT22;11483;55.828;37.488;2023-05-24T05:28:37;21.90;99.90
22633;DHT22;11483;55.828;37.488;2023-05-24T05:31:03;22.00;99.90
22633;DHT22;11483;55.828;37.488;2023-05-24T05:33:32;22.00;99.90
22633;DHT22;11483;55.828;37.488;2023-05-24T05:35:58;22.20;99.90
22633;DHT22;11483;55.828;37.488;2023-05-24T05:38:24;21.70;99.90
22633;DHT22;11483;55.828;37.488;2023-05-24T05:40:50;21.90;99.90
22633;DHT22;11483;55.828;37.488;2023-05-24T05:43:16;22.00;99.90
22633;DHT22;11483;55.828;37.488;2023-05-24T05:45:41;22.00;99.90
22633;DHT22;11483;55.828;37.488;2023-05-24T05:48:07;22.40;99.90
22633;DHT22;11483;55.828;37.488;2023-05-24T05:50:33;22.90;99.90
22633;DHT22;11483;55.828;37.488;2023-05-24T05:52:59;23.30;99.90
22633;DHT22;11483;55.828;37.488;2023-05-24T05:55:25;23.70;99.90
22633;DHT22;11483;55.828;37.488;2023-05-24T05:57:50;23.70;99.90
22633;DHT22;11483;55.828;37.488;2023-05-24T06:00:16;23.90;99.90
22633;DHT22;11483;55.828;37.488;2023-05-24T06:02:42;23.80;99.90
22633;DHT22;11483;55.828;37.488;2023-05-24T06:05:08;24.10;99.90
22633;DHT22;11483;55.828;37.488;2023-05-24T06:07:34;24.50;99.90
22633;DHT22;11483;55.828;37.488;2023-05-24T06:10:02;24.60;99.90
22633;DHT22;11483;55.828;37.488;2023-05-24T06:12:28;24.50;99.90
22633;DHT22;11483;55.828;37.488;2023-05-24T06:14:53;24.60;99.90
22633;DHT22;11483;55.828;37.488;2023-05-24T06:17:23;24.10;99.90
22633;DHT22;11483;55.828;37.488;2023-05-24T06:19:50;24.10;99.90
22633;DHT22;11483;55.828;37.488;2023-05-24T06:22:18;24.30;99.90
22633;DHT22;11483;55.828;37.488;2023-05-24T06:24:44;24.20;99.90
22633;DHT22;11483;55.828;37.488;2023-05-24T06:27:10;24.30;99.90
22633;DHT22;11483;55.828;37.488;2023-05-24T06:29:36;24.10;99.90
22633;DHT22;11483;55.828;37.488;2023-05-24T06:32:03;23.90;99.90
22633;DHT22;11483;55.828;37.488;2023-05-24T06:34:29;23.70;99.90
22633;DHT22;11483;55.828;37.488;2023-05-24T06:36:55;23.50;99.90
22633;DHT22;11483;55.828;37.488;2023-05-24T06:39:21;23.10;99.90
22633;DHT22;11483;55.828;37.488;2023-05-24T06:41:47;23.40;99.90
22633;DHT22;11483;55.828;37.488;2023-05-24T06:44:16;23.50;99.90
22633;DHT22;11483;55.828;37.488;2023-05-24T06:46:41;23.60;99.90
22633;DHT22;11483;55.828;37.488;2023-05-24T06:49:08;23.60;99.90
22633;DHT22;11483;55.828;37.488;2023-05-24T06:51:33;23.80;99.90
22633;DHT22;11483;55.828;37.488;2023-05-24T06:53:59;23.80;99.90
22633;DHT22;11483;55.828;37.488;2023-05-24T06:56:25;23.90;99.90
22633;DHT22;11483;55.828;37.488;2023-05-24T06:58:51;23.60;99.90
22633;DHT22;11483;55.828;37.488;2023-05-24T07:01:17;23.60;99.90
22633;DHT22;11483;55.828;37.488;2023-05-24T07:03:43;23.50;99.90
22633;DHT22;11483;55.828;37.488;2023-05-24T07:06:09;23.50;99.90
22633;DHT22;11483;55.828;37.488;2023-05-24T07:08:39;23.40;99.90
22633;DHT22;11483;55.828;37.488;2023-05-24T07:11:06;23.30;99.90
22633;DHT22;11483;55.828;37.488;2023-05-24T07:13:32;23.40;99.90
22633;DHT22;11483;55.828;37.488;2023-05-24T07:15:58;23.50;99.90
22633;DHT22;11483;55.828;37.488;2023-05-24T07:18:24;23.60;99.90
22633;DHT22;11483;55.828;37.488;2023-05-24T07:20:50;23.90;99.90
22633;DHT22;11483;55.828;37.488;2023-05-24T07:23:16;24.10;99.90
22633;DHT22;11483;55.828;37.488;2023-05-24T07:25:42;24.50;99.90
22633;DHT22;11483;55.828;37.488;2023-05-24T07:28:08;24.50;99.90
22633;DHT22;11483;55.828;37.488;2023-05-24T07:30:34;24.80;99.90
22633;DHT22;11483;55.828;37.488;2023-05-24T07:33:00;24.60;99.90
22633;DHT22;11483;55.828;37.488;2023-05-24T07:35:26;24.30;99.90
22633;DHT22;11483;55.828;37.488;2023-05-24T07:37:53;24.50;99.90
22633;DHT22;11483;55.828;37.488;2023-05-24T07:40:19;24.80;99.90
22633;DHT22;11483;55.828;37.488;2023-05-24T07:42:45;24.70;99.90
22633;DHT22;11483;55.828;37.488;2023-05-24T07:45:12;24.70;99.90
22633;DHT22;11483;55.828;37.488;2023-05-24T07:47:37;24.70;99.90
22633;DHT22;11483;55.828;37.488;2023-05-24T07:50:04;24.80;99.90
22633;DHT22;11483;55.828;37.488;2023-05-24T07:52:30;24.60;99.90
22633;DHT22;11483;55.828;37.488;2023-05-24T07:54:55;23.90;99.90
22633;DHT22;11483;55.828;37.488;2023-05-24T07:57:21;23.60;99.90
22633;DHT22;11483;55.828;37.488;2023-05-24T07:59:48;23.50;99.90
22633;DHT22;11483;55.828;37.488;2023-05-24T08:02:14;23.40;99.90
22633;DHT22;11483;55.828;37.488;2023-05-24T08:04:41;23.30;99.90
22633;DHT22;11483;55.828;37.488;2023-05-24T08:07:11;23.50;99.90
22633;DHT22;11483;55.828;37.488;2023-05-24T08:09:36;23.50;99.90
22633;DHT22;11483;55.828;37.488;2023-05-24T08:12:05;23.30;99.90
22633;DHT22;11483;55.828;37.488;2023-05-24T08:14:32;23.50;99.90
22633;DHT22;11483;55.828;37.488;2023-05-24T08:16:58;23.30;99.90
22633;DHT22;11483;55.828;37.488;2023-05-24T08:19:27;23.70;99.90
22633;DHT22;11483;55.828;37.488;2023-05-24T08:21:56;23.70;99.90
22633;DHT22;11483;55.828;37.488;2023-05-24T08:24:22;23.50;99.90
22633;DHT22;11483;55.828;37.488;2023-05-24T08:26:48;23.60;99.90
22633;DHT22;11483;55.828;37.488;2023-05-24T08:29:16;23.60;99.90
22633;DHT22;11483;55.828;37.488;2023-05-24T08:31:42;23.70;99.90
22633;DHT22;11483;55.828;37.488;2023-05-24T08:34:08;24.00;99.90
22633;DHT22;11483;55.828;37.488;2023-05-24T08:36:35;24.10;99.90
22633;DHT22;11483;55.828;37.488;2023-05-24T08:39:01;23.80;99.90
22633;DHT22;11483;55.828;37.488;2023-05-24T08:41:28;23.40;99.90
22633;DHT22;11483;55.828;37.488;2023-05-24T08:43:59;23.20;99.90
22633;DHT22;11483;55.828;37.488;2023-05-24T08:46:27;22.90;99.90
22633;DHT22;11483;55.828;37.488;2023-05-24T08:48:54;22.80;99.90
22633;DHT22;11483;55.828;37.488;2023-05-24T08:51:23;23.00;99.90
22633;DHT22;11483;55.828;37.488;2023-05-24T08:53:49;23.20;99.90
22633;DHT22;11483;55.828;37.488;2023-05-24T08:56:17;23.20;99.90
22633;DHT22;11483;55.828;37.488;2023-05-24T08:58:43;23.20;99.90
22633;DHT22;11483;55.828;37.488;2023-05-24T09:01:13;23.50;99.90
22633;DHT22;11483;55.828;37.488;2023-05-24T09:03:42;23.50;99.90
22633;DHT22;11483;55.828;37.488;2023-05-24T09:06:12;23.60;99.90
22633;DHT22;11483;55.828;37.488;2023-05-24T09:08:39;23.70;99.90
22633;DHT22;11483;55.828;37.488;2023-05-24T09:11:07;23.50;99.90
22633;DHT22;11483;55.828;37.488;2023-05-24T09:13:34;23.80;99.90
22633;DHT22;11483;55.828;37.488;2023-05-24T09:16:00;24.10;99.90
22633;DHT22;11483;55.828;37.488;2023-05-24T09:18:26;24.50;99.90
22633;DHT22;11483;55.828;37.488;2023-05-24T09:20:52;24.80;99.90
22633;DHT22;11483;55.828;37.488;2023-05-24T09:23:18;25.30;99.90
22633;DHT22;11483;55.828;37.488;2023-05-24T09:25:45;26.30;99.90
22633;DHT22;11483;55.828;37.488;2023-05-24T09:28:16;27.50;99.90
22633;DHT22;11483;55.828;37.488;2023-05-24T09:30:44;28.00;99.90
22633;DHT22;11483;55.828;37.488;2023-05-24T09:33:10;27.90;99.90
22633;DHT22;11483;55.828;37.488;2023-05-24T09:35:41;28.20;99.90
22633;DHT22;11483;55.828;37.488;2023-05-24T09:38:15;27.60;99.90
22633;DHT22;11483;55.828;37.488;2023-05-24T09:40:45;27.20;99.90
22633;DHT22;11483;55.828;37.488;2023-05-24T09:43:11;26.80;99.90
22633;DHT22;11483;55.828;37.488;2023-05-24T09:45:46;26.50;99.90
22633;DHT22;11483;55.828;37.488;2023-05-24T09:48:13;26.40;99.90
22633;DHT22;11483;55.828;37.488;2023-05-24T09:50:39;26.90;99.90
22633;DHT22;11483;55.828;37.488;2023-05-24T09:53:06;26.80;99.90
22633;DHT22;11483;55.828;37.488;2023-05-24T09:55:36;27.10;99.90
22633;DHT22;11483;55.828;37.488;2023-05-24T09:58:07;26.60;99.90
22633;DHT22;11483;55.828;37.488;2023-05-24T10:00:37;26.30;99.90
22633;DHT22;11483;55.828;37.488;2023-05-24T10:03:09;26.30;99.90
22633;DHT22;11483;55.828;37.488;2023-05-24T10:05:42;26.70;99.90
22633;DHT22;11483;55.828;37.488;2023-05-24T10:08:09;27.50;99.90
22633;DHT22;11483;55.828;37.488;2023-05-24T10:10:35;28.50;99.90
22633;DHT22;11483;55.828;37.488;2023-05-24T10:13:04;28.90;99.90
22633;DHT22;11483;55.828;37.488;2023-05-24T10:15:30;28.20;99.90
22633;DHT22;11483;55.828;37.488;2023-05-24T10:17:56;27.80;99.90
22633;DHT22;11483;55.828;37.488;2023-05-24T10:20:23;27.30;99.90
22633;DHT22;11483;55.828;37.488;2023-05-24T10:22:58;27.60;99.90
22633;DHT22;11483;55.828;37.488;2023-05-24T10:25:26;29.20;99.90
22633;DHT22;11483;55.828;37.488;2023-05-24T10:28:13;30.70;99.50
22633;DHT22;11483;55.828;37.488;2023-05-24T10:31:02;31.30;95.70
22633;DHT22;11483;55.828;37.488;2023-05-24T10:33:34;31.00;94.50
22633;DHT22;11483;55.828;37.488;2023-05-24T10:36:02;30.60;93.40
22633;DHT22;11483;55.828;37.488;2023-05-24T10:38:28;29.80;94.20
22633;DHT22;11483;55.828;37.488;2023-05-24T10:40:55;29.20;94.40
22633;DHT22;11483;55.828;37.488;2023-05-24T10:43:21;28.80;95.00
22633;DHT22;11483;55.828;37.488;2023-05-24T10:45:48;28.40;95.40
22633;DHT22;11483;55.828;37.488;2023-05-24T10:50:42;27.10;96.40
22633;DHT22;11483;55.828;37.488;2023-05-24T10:53:12;26.30;98.10
22633;DHT22;11483;55.828;37.488;2023-05-24T10:56:07;25.80;99.20
22633;DHT22;11483;55.828;37.488;2023-05-24T11:01:26;25.30;99.70
22633;DHT22;11483;55.828;37.488;2023-05-24T11:03:52;24.80;99.90
22633;DHT22;11483;55.828;37.488;2023-05-24T11:09:10;24.10;99.90
22633;DHT22;11483;55.828;37.488;2023-05-24T11:11:36;23.80;99.90
22633;DHT22;11483;55.828;37.488;2023-05-24T11:14:04;23.60;99.90
22633;DHT22;11483;55.828;37.488;2023-05-24T11:16:35;23.50;99.90
22633;DHT22;11483;55.828;37.488;2023-05-24T11:19:11;23.30;99.90
22633;DHT22;11483;55.828;37.488;2023-05-24T11:21:40;23.30;99.90
22633;DHT22;11483;55.828;37.488;2023-05-24T11:24:08;23.30;99.90
22633;DHT22;11483;55.828;37.488;2023-05-24T11:26:34;23.40;99.90
22633;DHT22;11483;55.828;37.488;2023-05-24T11:29:00;23.40;99.90
22633;DHT22;11483;55.828;37.488;2023-05-24T11:31:27;23.30;99.90
22633;DHT22;11483;55.828;37.488;2023-05-24T11:33:52;23.30;99.90
22633;DHT22;11483;55.828;37.488;2023-05-24T11:36:19;23.30;99.90
22633;DHT22;11483;55.828;37.488;2023-05-24T11:38:46;23.30;99.90
22633;DHT22;11483;55.828;37.488;2023-05-24T11:41:16;23.50;99.90
22633;DHT22;11483;55.828;37.488;2023-05-24T11:43:43;23.90;99.90
22633;DHT22;11483;55.828;37.488;2023-05-24T11:46:08;24.20;99.90
22633;DHT22;11483;55.828;37.488;2023-05-24T11:48:35;24.80;99.90
22633;DHT22;11483;55.828;37.488;2023-05-24T11:51:01;25.00;99.90
22633;DHT22;11483;55.828;37.488;2023-05-24T11:53:29;25.10;99.90
22633;DHT22;11483;55.828;37.488;2023-05-24T11:55:55;25.00;99.90
22633;DHT22;11483;55.828;37.488;2023-05-24T11:58:21;25.00;99.90
22633;DHT22;11483;55.828;37.488;2023-05-24T12:00:48;24.90;99.90
22633;DHT22;11483;55.828;37.488;2023-05-24T12:03:13;24.90;99.90
22633;DHT22;11483;55.828;37.488;2023-05-24T12:05:39;24.90;99.90
22633;DHT22;11483;55.828;37.488;2023-05-24T12:08:06;24.60;99.90
22633;DHT22;11483;55.828;37.488;2023-05-24T12:10:35;24.40;99.90
22633;DHT22;11483;55.828;37.488;2023-05-24T12:13:24;24.10;99.90
22633;DHT22;11483;55.828;37.488;2023-05-24T12:15:56;23.90;99.90
22633;DHT22;11483;55.828;37.488;2023-05-24T12:18:23;23.80;99.90
22633;DHT22;11483;55.828;37.488;2023-05-24T12:20:50;23.60;99.90
22633;DHT22;11483;55.828;37.488;2023-05-24T12:23:20;23.60;99.90
22633;DHT22;11483;55.828;37.488;2023-05-24T12:25:47;23.60;99.90
22633;DHT22;11483;55.828;37.488;2023-05-24T12:28:15;23.70;99.90
22633;DHT22;11483;55.828;37.488;2023-05-24T12:30:41;23.80;99.90
22633;DHT22;11483;55.828;37.488;2023-05-24T12:33:09;24.00;99.90
22633;DHT22;11483;55.828;37.488;2023-05-24T12:35:38;24.10;99.90
22633;DHT22;11483;55.828;37.488;2023-05-24T12:38:08;24.10;99.90
22633;DHT22;11483;55.828;37.488;2023-05-24T12:40:35;24.20;99.90
22633;DHT22;11483;55.828;37.488;2023-05-24T12:43:02;24.20;99.90
22633;DHT22;11483;55.828;37.488;2023-05-24T12:45:29;24.30;99.90
22633;DHT22;11483;55.828;37.488;2023-05-24T12:47:59;24.40;99.90
22633;DHT22;11483;55.828;37.488;2023-05-24T12:50:27;24.40;99.90
22633;DHT22;11483;55.828;37.488;2023-05-24T12:52:53;24.30;99.90
22633;DHT22;11483;55.828;37.488;2023-05-24T12:55:21;24.30;99.90
22633;DHT22;11483;55.828;37.488;2023-05-24T12:57:47;24.30;99.90
22633;DHT22;11483;55.828;37.488;2023-05-24T13:00:26;24.50;99.90
22633;DHT22;11483;55.828;37.488;2023-05-24T13:02:54;24.60;99.90
22633;DHT22;11483;55.828;37.488;2023-05-24T13:05:25;24.60;99.90
22633;DHT22;11483;55.828;37.488;2023-05-24T13:07:52;24.50;99.90
22633;DHT22;11483;55.828;37.488;2023-05-24T13:10:18;24.40;99.90
22633;DHT22;11483;55.828;37.488;2023-05-24T13:12:45;24.40;99.90
22633;DHT22;11483;55.828;37.488;2023-05-24T13:15:11;24.30;99.90
22633;DHT22;11483;55.828;37.488;2023-05-24T13:17:39;24.10;99.90
22633;DHT22;11483;55.828;37.488;2023-05-24T13:20:05;24.20;99.90
22633;DHT22;11483;55.828;37.488;2023-05-24T13:22:33;24.30;99.90
22633;DHT22;11483;55.828;37.488;2023-05-24T13:25:00;24.50;99.90
22633;DHT22;11483;55.828;37.488;2023-05-24T13:27:27;24.80;99.90
22633;DHT22;11483;55.828;37.488;2023-05-24T13:29:53;25.30;99.90
22633;DHT22;11483;55.828;37.488;2023-05-24T13:32:19;25.60;99.90
22633;DHT22;11483;55.828;37.488;2023-05-24T13:34:45;25.50;99.90
22633;DHT22;11483;55.828;37.488;2023-05-24T13:37:10;25.30;99.90
22633;DHT22;11483;55.828;37.488;2023-05-24T13:39:37;25.10;99.90
22633;DHT22;11483;55.828;37.488;2023-05-24T13:42:03;25.00;99.90
22633;DHT22;11483;55.828;37.488;2023-05-24T13:44:29;25.30;99.90
22633;DHT22;11483;55.828;37.488;2023-05-24T13:46:55;25.50;99.90
22633;DHT22;11483;55.828;37.488;2023-05-24T13:49:21;25.70;99.90
22633;DHT22;11483;55.828;37.488;2023-05-24T13:51:47;25.70;99.90
22633;DHT22;11483;55.828;37.488;2023-05-24T13:54:14;25.40;99.90
22633;DHT22;11483;55.828;37.488;2023-05-24T13:56:40;24.90;99.90
22633;DHT22;11483;55.828;37.488;2023-05-24T13:59:09;24.80;99.90
22633;DHT22;11483;55.828;37.488;2023-05-24T14:01:35;24.60;99.90
22633;DHT22;11483;55.828;37.488;2023-05-24T14:04:05;24.60;99.90
22633;DHT22;11483;55.828;37.488;2023-05-24T14:06:32;24.80;99.90
22633;DHT22;11483;55.828;37.488;2023-05-24T14:08:59;24.80;99.90
22633;DHT22;11483;55.828;37.488;2023-05-24T14:11:25;24.80;99.90
22633;DHT22;11483;55.828;37.488;2023-05-24T14:13:52;24.70;99.90
22633;DHT22;11483;55.828;37.488;2023-05-24T14:16:20;24.70;99.90
22633;DHT22;11483;55.828;37.488;2023-05-24T14:18:46;24.50;99.90
22633;DHT22;11483;55.828;37.488;2023-05-24T14:21:13;24.40;99.90
22633;DHT22;11483;55.828;37.488;2023-05-24T14:23:39;24.20;99.90
22633;DHT22;11483;55.828;37.488;2023-05-24T14:26:05;24.00;99.90
22633;DHT22;11483;55.828;37.488;2023-05-24T14:28:31;23.90;99.90
22633;DHT22;11483;55.828;37.488;2023-05-24T14:30:57;23.90;99.90
22633;DHT22;11483;55.828;37.488;2023-05-24T14:33:22;23.90;99.90
22633;DHT22;11483;55.828;37.488;2023-05-24T14:35:49;24.00;99.90
22633;DHT22;11483;55.828;37.488;2023-05-24T14:38:16;24.10;99.90
22633;DHT22;11483;55.828;37.488;2023-05-24T14:40:42;24.20;99.90
22633;DHT22;11483;55.828;37.488;2023-05-24T14:43:11;24.40;99.90
22633;DHT22;11483;55.828;37.488;2023-05-24T14:45:38;24.50;99.90
22633;DHT22;11483;55.828;37.488;2023-05-24T14:48:06;24.40;99.90
22633;DHT22;11483;55.828;37.488;2023-05-24T14:50:32;24.50;99.90
22633;DHT22;11483;55.828;37.488;2023-05-24T14:52:57;24.50;99.90
22633;DHT22;11483;55.828;37.488;2023-05-24T14:55:24;24.40;99.90
22633;DHT22;11483;55.828;37.488;2023-05-24T14:57:51;24.30;99.90
22633;DHT22;11483;55.828;37.488;2023-05-24T15:00:17;24.20;99.90
22633;DHT22;11483;55.828;37.488;2023-05-24T15:02:43;24.20;99.90
22633;DHT22;11483;55.828;37.488;2023-05-24T15:05:09;24.20;99.90
22633;DHT22;11483;55.828;37.488;2023-05-24T15:07:35;23.90;99.90
22633;DHT22;11483;55.828;37.488;2023-05-24T15:10:01;23.80;99.90
22633;DHT22;11483;55.828;37.488;2023-05-24T15:12:27;23.70;99.90
22633;DHT22;11483;55.828;37.488;2023-05-24T15:14:52;23.60;99.90
22633;DHT22;11483;55.828;37.488;2023-05-24T15:17:18;23.50;99.90
22633;DHT22;11483;55.828;37.488;2023-05-24T15:19:44;23.50;99.90
22633;DHT22;11483;55.828;37.488;2023-05-24T15:22:10;23.30;99.90
22633;DHT22;11483;55.828;37.488;2023-05-24T15:24:36;23.20;99.90
22633;DHT22;11483;55.828;37.488;2023-05-24T15:27:02;23.10;99.90
22633;DHT22;11483;55.828;37.488;2023-05-24T15:29:29;22.90;99.90
22633;DHT22;11483;55.828;37.488;2023-05-24T15:31:55;22.80;99.90
22633;DHT22;11483;55.828;37.488;2023-05-24T15:34:23;22.70;99.90
22633;DHT22;11483;55.828;37.488;2023-05-24T15:36:49;22.70;99.90
22633;DHT22;11483;55.828;37.488;2023-05-24T15:39:16;22.60;99.90
22633;DHT22;11483;55.828;37.488;2023-05-24T15:41:43;22.50;99.90